Time;durP1;ratioP1;P1;durP2;ratioP2;P2;SDS_P1;SDS_P2;PMS_P1;PMS_P2;Temp;Humidity;BMP_temperature;BMP_pressure;BME280_temperature;BME280_humidity;BME280_pressure;Samples;Min_cycle;Max_cycle;Signal;HPM_P1;HPM_P2
2021/11/08 00:01:04;;;;;;;0.40;0.40;;;;;;;;;;5034503;28;20742;-63
2021/11/08 00:03:33;;;;;;;0.50;0.50;;;;;;;;;;5034496;28;20675;-64
2021/11/08 00:06:03;;;;;;;0.50;0.50;;;;;;;;;;5034597;28;20181;-64
2021/11/08 00:08:29;;;;;;;0.40;0.40;;;;;;;;;;5034583;28;20644;-63
2021/11/08 00:10:55;;;;;;;0.40;0.40;;;;;;;;;;5034297;28;20233;-63
2021/11/08 00:13:22;;;;;;;0.50;0.50;;;;;;;;;;5034231;28;20220;-63
2021/11/08 00:16:16;;;;;;;0.50;0.50;;;;;;;;;;5034473;28;20172;-63
2021/11/08 00:21:09;;;;;;;0.40;0.40;;;;;;;;;;5034004;28;20184;-63
2021/11/08 00:23:37;;;;;;;0.40;0.40;;;;;;;;;;5034099;28;20208;-64
2021/11/08 00:26:03;;;;;;;0.40;0.40;;;;;;;;;;5034250;28;20652;-63
2021/11/08 00:28:29;;;;;;;0.40;0.40;;;;;;;;;;5032831;28;20188;-64
2021/11/08 00:30:56;;;;;;;0.40;0.40;;;;;;;;;;5033866;28;20260;-63
2021/11/08 00:33:22;;;;;;;0.40;0.40;;;;;;;;;;5038363;28;20261;-63
2021/11/08 00:35:49;;;;;;;0.50;0.50;;;;;;;;;;5053966;28;20174;-63
2021/11/08 00:38:16;;;;;;;0.47;0.47;;;;;;;;;;5053811;28;20739;-63
2021/11/08 00:40:42;;;;;;;0.45;0.45;;;;;;;;;;5053768;28;20179;-63
2021/11/08 00:43:09;;;;;;;0.50;0.50;;;;;;;;;;5053786;28;20238;-63
2021/11/08 00:45:35;;;;;;;0.40;0.40;;;;;;;;;;5053605;28;20175;-64
2021/11/08 00:48:02;;;;;;;0.50;0.50;;;;;;;;;;5052574;28;20213;-63
2021/11/08 00:50:28;;;;;;;0.50;0.50;;;;;;;;;;5053487;28;20650;-63
2021/11/08 00:52:55;;;;;;;0.50;0.50;;;;;;;;;;5053444;28;20701;-64
2021/11/08 00:55:23;;;;;;;0.47;0.47;;;;;;;;;;5053705;28;20179;-63
2021/11/08 00:57:49;;;;;;;0.50;0.50;;;;;;;;;;5053561;28;20260;-64
2021/11/08 01:00:17;;;;;;;0.40;0.40;;;;;;;;;;5053272;28;20182;-63
2021/11/08 01:02:43;;;;;;;0.40;0.40;;;;;;;;;;5052089;28;20232;-63
2021/11/08 01:05:11;;;;;;;0.40;0.40;;;;;;;;;;5053416;28;20174;-66
2021/11/08 01:07:36;;;;;;;0.40;0.40;;;;;;;;;;5039239;28;20529;-66
2021/11/08 01:10:05;;;;;;;0.50;0.50;;;;;;;;;;5033107;28;20326;-63
2021/11/08 01:12:32;;;;;;;0.50;0.50;;;;;;;;;;5033177;28;20759;-63
2021/11/08 01:14:58;;;;;;;0.50;0.50;;;;;;;;;;5033166;28;20211;-63
2021/11/08 01:17:24;;;;;;;0.40;0.40;;;;;;;;;;5033174;28;20333;-63
2021/11/08 01:19:51;;;;;;;0.40;0.40;;;;;;;;;;5033227;28;20561;-65
2021/11/08 01:22:18;;;;;;;0.40;0.40;;;;;;;;;;5032878;28;20171;-65
2021/11/08 01:24:52;;;;;;;0.40;0.40;;;;;;;;;;5032996;28;20199;-65
2021/11/08 01:27:18;;;;;;;0.50;0.50;;;;;;;;;;5033086;28;20241;-65
2021/11/08 01:29:44;;;;;;;0.40;0.40;;;;;;;;;;5032982;28;20542;-65
2021/11/08 01:32:11;;;;;;;0.40;0.40;;;;;;;;;;5031799;28;20184;-65
2021/11/08 01:34:37;;;;;;;0.50;0.50;;;;;;;;;;5032705;28;20438;-65
2021/11/08 01:37:04;;;;;;;0.50;0.50;;;;;;;;;;5032774;28;20202;-65
2021/11/08 01:39:36;;;;;;;0.50;0.50;;;;;;;;;;5032831;28;20182;-65
2021/11/08 01:42:06;;;;;;;0.40;0.40;;;;;;;;;;5032867;28;20643;-65
2021/11/08 01:44:32;;;;;;;0.50;0.50;;;;;;;;;;5032668;28;20187;-64
2021/11/08 01:47:01;;;;;;;0.50;0.50;;;;;;;;;;5032760;28;20176;-65
2021/11/08 01:49:27;;;;;;;0.50;0.50;;;;;;;;;;5032818;28;20822;-65
2021/11/08 01:51:53;;;;;;;0.50;0.50;;;;;;;;;;5032360;28;20325;-65
2021/11/08 01:54:19;;;;;;;0.50;0.50;;;;;;;;;;5032081;28;20453;-65
2021/11/08 01:56:45;;;;;;;0.50;0.50;;;;;;;;;;5032458;28;20195;-65
2021/11/08 01:59:11;;;;;;;0.40;0.40;;;;;;;;;;5032427;28;20178;-64
2021/11/08 02:01:38;;;;;;;0.40;0.40;;;;;;;;;;5032189;28;20541;-65
2021/11/08 02:04:04;;;;;;;0.50;0.50;;;;;;;;;;5032247;28;20524;-65
2021/11/08 02:06:30;;;;;;;0.40;0.40;;;;;;;;;;5032272;28;20169;-65
2021/11/08 02:08:56;;;;;;;0.50;0.50;;;;;;;;;;5032308;28;20178;-65
2021/11/08 02:11:22;;;;;;;0.40;0.40;;;;;;;;;;5032079;28;20171;-65
2021/11/08 02:13:50;;;;;;;0.50;0.50;;;;;;;;;;5032064;28;20506;-65
2021/11/08 02:16:16;;;;;;;0.50;0.50;;;;;;;;;;5032127;28;20650;-65
2021/11/08 02:18:42;;;;;;;0.40;0.40;;;;;;;;;;5032088;28;20277;-65
2021/11/08 02:21:10;;;;;;;0.40;0.40;;;;;;;;;;5031611;28;20201;-65
2021/11/08 02:23:37;;;;;;;0.50;0.50;;;;;;;;;;5031903;28;20234;-65
2021/11/08 02:26:06;;;;;;;0.50;0.50;;;;;;;;;;5032170;28;20183;-65
2021/11/08 02:28:32;;;;;;;0.40;0.40;;;;;;;;;;5031958;28;20179;-65
2021/11/08 02:30:58;;;;;;;0.50;0.50;;;;;;;;;;5031747;28;20209;-65
2021/11/08 02:33:25;;;;;;;0.50;0.50;;;;;;;;;;5031881;28;20218;-65
2021/11/08 02:35:52;;;;;;;0.40;0.40;;;;;;;;;;5031876;28;20178;-65
2021/11/08 02:38:25;;;;;;;0.40;0.40;;;;;;;;;;5031733;28;20706;-65
2021/11/08 02:40:53;;;;;;;0.40;0.40;;;;;;;;;;5031653;28;20203;-64
2021/11/08 02:43:20;;;;;;;0.40;0.40;;;;;;;;;;5031206;28;20256;-65
2021/11/08 02:45:47;;;;;;;0.40;0.40;;;;;;;;;;5030494;28;20187;-65
2021/11/08 02:48:14;;;;;;;0.40;0.40;;;;;;;;;;5031635;28;20217;-65
2021/11/08 02:50:41;;;;;;;0.40;0.40;;;;;;;;;;5031028;28;20639;-64
2021/11/08 02:53:11;;;;;;;0.40;0.40;;;;;;;;;;5029921;28;20200;-65
2021/11/08 02:55:38;;;;;;;0.40;0.40;;;;;;;;;;5031699;28;20313;-65
2021/11/08 02:58:03;;;;;;;0.50;0.50;;;;;;;;;;5031661;28;20210;-65
2021/11/08 03:00:30;;;;;;;0.40;0.40;;;;;;;;;;5031838;28;20175;-64
2021/11/08 03:02:56;;;;;;;0.50;0.50;;;;;;;;;;5031436;28;20178;-65
2021/11/08 03:05:36;;;;;;;0.50;0.50;;;;;;;;;;5031433;28;20171;-65
2021/11/08 03:08:09;;;;;;;0.60;0.60;;;;;;;;;;5031600;28;20175;-64
2021/11/08 03:10:38;;;;;;;0.50;0.50;;;;;;;;;;5030118;28;20175;-65
2021/11/08 03:13:17;;;;;;;0.40;0.40;;;;;;;;;;5031629;28;20571;-65
2021/11/08 03:18:16;;;;;;;0.47;0.47;;;;;;;;;;5032302;28;20213;-64
2021/11/08 03:20:42;;;;;;;0.50;0.50;;;;;;;;;;5031807;28;20420;-65
2021/11/08 03:23:08;;;;;;;0.50;0.50;;;;;;;;;;5031548;28;20188;-64
2021/11/08 03:26:01;;;;;;;0.50;0.50;;;;;;;;;;5031411;28;20542;-64
2021/11/08 03:28:27;;;;;;;0.57;0.57;;;;;;;;;;5031419;28;20665;-65
2021/11/08 03:30:55;;;;;;;0.50;0.50;;;;;;;;;;5031189;28;20178;-64
2021/11/08 03:33:23;;;;;;;0.40;0.40;;;;;;;;;;5031259;28;20441;-64
2021/11/08 03:35:49;;;;;;;0.50;0.50;;;;;;;;;;5029985;28;20661;-65
2021/11/08 03:38:15;;;;;;;0.50;0.50;;;;;;;;;;5031241;28;20255;-64
2021/11/08 03:40:42;;;;;;;0.50;0.50;;;;;;;;;;5030994;28;20169;-64
2021/11/08 03:43:11;;;;;;;0.50;0.50;;;;;;;;;;5031283;28;20251;-65
2021/11/08 03:45:37;;;;;;;0.40;0.40;;;;;;;;;;5031187;28;20175;-65
2021/11/08 03:48:04;;;;;;;0.40;0.40;;;;;;;;;;5031048;28;20198;-65
2021/11/08 03:50:30;;;;;;;0.50;0.50;;;;;;;;;;5030933;28;20685;-65
2021/11/08 03:52:56;;;;;;;0.40;0.40;;;;;;;;;;5030890;28;20664;-64
2021/11/08 03:55:22;;;;;;;0.50;0.50;;;;;;;;;;5033156;28;20217;-65
2021/11/08 03:57:49;;;;;;;0.50;0.50;;;;;;;;;;5034704;28;20204;-65
2021/11/08 04:00:16;;;;;;;0.50;0.50;;;;;;;;;;5034551;28;20176;-64
2021/11/08 04:02:42;;;;;;;0.50;0.50;;;;;;;;;;5034624;28;20168;-64
2021/11/08 04:05:09;;;;;;;0.50;0.50;;;;;;;;;;5034606;28;20262;-65
2021/11/08 04:07:35;;;;;;;0.50;0.50;;;;;;;;;;5034555;28;20181;-64
2021/11/08 04:10:01;;;;;;;0.40;0.40;;;;;;;;;;5034494;28;20170;-65
2021/11/08 04:12:28;;;;;;;0.50;0.50;;;;;;;;;;5034366;28;20179;-64
2021/11/08 04:14:55;;;;;;;0.40;0.40;;;;;;;;;;5034401;28;20205;-65
2021/11/08 04:17:24;;;;;;;0.45;0.45;;;;;;;;;;5034124;28;20260;-64
2021/11/08 04:19:52;;;;;;;0.50;0.50;;;;;;;;;;5034093;28;20249;-65
2021/11/08 04:22:18;;;;;;;0.50;0.50;;;;;;;;;;5032610;28;20174;-64
2021/11/08 04:24:43;;;;;;;0.40;0.40;;;;;;;;;;5034212;28;20255;-65
2021/11/08 04:27:10;;;;;;;0.40;0.40;;;;;;;;;;5034295;28;20413;-65
2021/11/08 04:29:37;;;;;;;0.40;0.40;;;;;;;;;;5034205;28;20406;-65
2021/11/08 04:32:03;;;;;;;0.50;0.50;;;;;;;;;;5033947;28;20632;-65
2021/11/08 04:34:41;;;;;;;0.50;0.50;;;;;;;;;;5033957;28;20223;-65
2021/11/08 04:40:09;;;;;;;0.40;0.40;;;;;;;;;;5034020;28;20305;-65
2021/11/08 04:50:56;;;;;;;0.50;0.50;;;;;;;;;;5033566;28;20169;-65
2021/11/08 05:27:52;;;;;;;0.60;0.60;;;;;;;;;;5033294;28;20179;-65
2021/11/08 05:31:40;;;;;;;0.50;0.50;;;;;;;;;;5033023;28;20703;-65
2021/11/08 05:34:06;;;;;;;0.40;0.40;;;;;;;;;;5032907;28;20572;-64
2021/11/08 05:36:31;;;;;;;0.40;0.40;;;;;;;;;;5032904;28;20173;-64
2021/11/08 05:38:58;;;;;;;0.50;0.50;;;;;;;;;;5032921;28;20182;-64
2021/11/08 05:41:24;;;;;;;0.50;0.50;;;;;;;;;;5032948;28;20492;-64
2021/11/08 05:43:50;;;;;;;0.50;0.50;;;;;;;;;;5032713;28;20243;-64
2021/11/08 05:46:19;;;;;;;0.50;0.50;;;;;;;;;;5032916;28;20549;-65
2021/11/08 05:48:45;;;;;;;0.47;0.47;;;;;;;;;;5032755;28;20171;-65
2021/11/08 05:51:11;;;;;;;0.50;0.50;;;;;;;;;;5031849;28;20231;-64
2021/11/08 05:53:38;;;;;;;0.40;0.40;;;;;;;;;;5032283;28;20217;-64
2021/11/08 05:56:21;;;;;;;0.50;0.50;;;;;;;;;;5040246;28;20184;-65
2021/11/08 06:50:24;;;;;;;0.50;0.50;;;;;;;;;;5024107;28;20193;-65
2021/11/08 06:52:51;;;;;;;0.50;0.50;;;;;;;;;;5029186;28;20184;-65
2021/11/08 06:55:18;;;;;;;0.50;0.50;;;;;;;;;;5028571;28;21180;-65
2021/11/08 06:57:46;;;;;;;0.50;0.50;;;;;;;;;;5031503;28;20231;-65
2021/11/08 07:00:13;;;;;;;0.50;0.50;;;;;;;;;;5026159;28;20198;-65
2021/11/08 07:02:39;;;;;;;0.50;0.50;;;;;;;;;;5031359;28;20210;-65
2021/11/08 07:05:05;;;;;;;0.50;0.50;;;;;;;;;;5031020;28;20710;-65
2021/11/08 07:07:31;;;;;;;0.45;0.45;;;;;;;;;;5031013;28;20890;-65
2021/11/08 07:09:57;;;;;;;0.50;0.50;;;;;;;;;;5030642;28;20230;-65
2021/11/08 07:12:23;;;;;;;0.50;0.50;;;;;;;;;;5029948;28;20412;-65
2021/11/08 07:14:49;;;;;;;0.50;0.50;;;;;;;;;;5031277;28;20431;-65
2021/11/08 07:17:15;;;;;;;0.40;0.40;;;;;;;;;;5031040;28;20470;-65
2021/11/08 07:19:41;;;;;;;0.50;0.50;;;;;;;;;;5031346;28;20176;-65
2021/11/08 07:22:07;;;;;;;0.47;0.47;;;;;;;;;;5031104;28;20409;-65
2021/11/08 07:24:34;;;;;;;0.50;0.50;;;;;;;;;;5031245;28;20241;-65
2021/11/08 07:27:00;;;;;;;0.50;0.50;;;;;;;;;;5031328;28;20200;-65
2021/11/08 07:29:28;;;;;;;0.40;0.40;;;;;;;;;;5033677;28;20181;-65
2021/11/08 07:31:54;;;;;;;0.50;0.50;;;;;;;;;;5034835;28;20166;-65
2021/11/08 07:34:20;;;;;;;0.50;0.50;;;;;;;;;;5031724;28;20747;-65
2021/11/08 07:36:46;;;;;;;0.40;0.40;;;;;;;;;;5034267;28;20203;-65
2021/11/08 07:39:12;;;;;;;0.50;0.50;;;;;;;;;;5034926;28;20228;-65
2021/11/08 07:41:38;;;;;;;0.50;0.50;;;;;;;;;;5034721;28;20408;-65
2021/11/08 07:44:05;;;;;;;0.50;0.50;;;;;;;;;;5034725;28;20621;-65
2021/11/08 07:46:31;;;;;;;0.40;0.40;;;;;;;;;;5034879;28;20313;-65
2021/11/08 07:48:57;;;;;;;0.50;0.50;;;;;;;;;;5034102;28;20178;-65
2021/11/08 07:51:23;;;;;;;0.50;0.50;;;;;;;;;;5034606;28;20250;-65
2021/11/08 07:53:49;;;;;;;0.40;0.40;;;;;;;;;;5034533;28;20794;-65
2021/11/08 07:56:15;;;;;;;0.40;0.40;;;;;;;;;;5034724;28;20891;-65
2021/11/08 07:58:42;;;;;;;0.40;0.40;;;;;;;;;;5034223;28;20568;-65
2021/11/08 08:01:09;;;;;;;0.40;0.40;;;;;;;;;;5034129;28;20639;-65
2021/11/08 08:03:36;;;;;;;0.50;0.50;;;;;;;;;;5034419;28;20185;-65
2021/11/08 08:06:03;;;;;;;0.50;0.50;;;;;;;;;;5034522;28;20171;-65
2021/11/08 08:08:29;;;;;;;0.50;0.50;;;;;;;;;;5034151;28;20176;-65
2021/11/08 08:10:55;;;;;;;0.50;0.50;;;;;;;;;;5032372;28;20265;-65
2021/11/08 08:13:25;;;;;;;0.50;0.50;;;;;;;;;;5033908;28;20202;-65
2021/11/08 08:15:53;;;;;;;0.50;0.50;;;;;;;;;;5034516;28;20231;-65
2021/11/08 08:18:20;;;;;;;0.50;0.50;;;;;;;;;;5034155;28;20605;-65
2021/11/08 08:20:46;;;;;;;0.40;0.40;;;;;;;;;;5033752;28;20246;-65
2021/11/08 08:23:12;;;;;;;0.60;0.60;;;;;;;;;;5034137;28;20199;-65
2021/11/08 08:25:38;;;;;;;0.50;0.50;;;;;;;;;;5033972;28;20178;-65
2021/11/08 08:28:05;;;;;;;0.50;0.50;;;;;;;;;;5034051;28;20262;-66
2021/11/08 08:30:31;;;;;;;0.50;0.50;;;;;;;;;;5033676;28;20188;-63
2021/11/08 08:32:57;;;;;;;0.50;0.50;;;;;;;;;;5033470;28;20230;-63
2021/11/08 08:35:22;;;;;;;0.50;0.50;;;;;;;;;;5033849;28;20177;-64
2021/11/08 08:37:48;;;;;;;0.50;0.50;;;;;;;;;;5033753;28;20447;-63
2021/11/08 08:40:15;;;;;;;0.40;0.40;;;;;;;;;;5032244;28;20924;-63
2021/11/08 08:42:41;;;;;;;0.50;0.50;;;;;;;;;;5033678;28;20497;-64
2021/11/08 08:45:07;;;;;;;0.40;0.40;;;;;;;;;;5031623;28;20192;-64
2021/11/08 08:47:33;;;;;;;0.50;0.50;;;;;;;;;;5033721;28;20181;-66
2021/11/08 08:50:00;;;;;;;0.50;0.50;;;;;;;;;;5033715;28;20181;-64
2021/11/08 08:52:26;;;;;;;0.40;0.40;;;;;;;;;;5033490;28;20184;-63
2021/11/08 08:54:52;;;;;;;0.60;0.60;;;;;;;;;;5031559;28;20605;-64
2021/11/08 08:57:19;;;;;;;0.50;0.50;;;;;;;;;;5033537;28;20607;-64
2021/11/08 08:59:44;;;;;;;0.50;0.50;;;;;;;;;;5033462;28;20247;-64
2021/11/08 09:02:11;;;;;;;0.50;0.50;;;;;;;;;;5033076;28;20286;-64
2021/11/08 09:04:37;;;;;;;0.50;0.50;;;;;;;;;;5033313;28;20510;-64
2021/11/08 09:07:04;;;;;;;0.50;0.50;;;;;;;;;;5032709;28;20241;-63
2021/11/08 09:09:30;;;;;;;0.50;0.50;;;;;;;;;;5033145;28;20180;-63
2021/11/08 09:11:56;;;;;;;0.50;0.50;;;;;;;;;;5032653;28;20273;-63
2021/11/08 09:14:22;;;;;;;0.50;0.50;;;;;;;;;;5033054;28;20278;-63
2021/11/08 09:16:48;;;;;;;0.50;0.50;;;;;;;;;;5032816;28;20419;-63
2021/11/08 09:19:14;;;;;;;0.40;0.40;;;;;;;;;;5032845;28;20180;-64
2021/11/08 09:21:40;;;;;;;0.40;0.40;;;;;;;;;;5032909;28;20251;-64
2021/11/08 09:24:07;;;;;;;0.50;0.50;;;;;;;;;;5032811;28;20578;-63
2021/11/08 09:26:34;;;;;;;0.40;0.40;;;;;;;;;;5032951;28;20183;-63
2021/11/08 09:29:00;;;;;;;0.40;0.40;;;;;;;;;;5032451;28;20177;-64
2021/11/08 09:31:27;;;;;;;0.50;0.50;;;;;;;;;;5032689;28;20252;-63
2021/11/08 09:33:58;;;;;;;0.50;0.50;;;;;;;;;;5032610;28;20193;-64
2021/11/08 09:36:24;;;;;;;0.50;0.50;;;;;;;;;;5032792;28;20243;-64
2021/11/08 09:38:54;;;;;;;0.50;0.50;;;;;;;;;;5032906;28;20212;-63
2021/11/08 09:41:22;;;;;;;0.40;0.40;;;;;;;;;;5032201;28;20163;-64
2021/11/08 09:43:48;;;;;;;0.40;0.40;;;;;;;;;;5032590;28;20193;-63
2021/11/08 09:46:15;;;;;;;0.40;0.40;;;;;;;;;;5032367;28;20179;-64
2021/11/08 09:48:41;;;;;;;0.40;0.40;;;;;;;;;;5033042;28;20173;-64
2021/11/08 09:51:08;;;;;;;0.50;0.50;;;;;;;;;;5031728;28;20204;-64
2021/11/08 09:53:35;;;;;;;0.40;0.40;;;;;;;;;;5032260;28;20219;-63
2021/11/08 09:56:01;;;;;;;0.50;0.50;;;;;;;;;;5032384;28;20200;-63
2021/11/08 09:58:28;;;;;;;0.40;0.40;;;;;;;;;;5032345;28;20208;-63
2021/11/08 10:00:56;;;;;;;0.47;0.47;;;;;;;;;;5032330;28;20161;-64
2021/11/08 10:03:26;;;;;;;0.40;0.40;;;;;;;;;;5031750;28;20230;-63
2021/11/08 10:05:54;;;;;;;0.50;0.50;;;;;;;;;;5032321;28;20191;-64
2021/11/08 10:08:22;;;;;;;0.50;0.50;;;;;;;;;;5032308;28;20652;-64
2021/11/08 10:10:48;;;;;;;0.50;0.50;;;;;;;;;;5031944;28;20181;-64
2021/11/08 10:13:17;;;;;;;0.50;0.50;;;;;;;;;;5031558;28;20726;-64
2021/11/08 10:15:44;;;;;;;0.50;0.50;;;;;;;;;;5032100;28;20180;-64
2021/11/08 10:18:11;;;;;;;0.50;0.50;;;;;;;;;;5031596;28;20200;-64
2021/11/08 10:20:47;;;;;;;0.40;0.40;;;;;;;;;;5031924;28;20176;-66
2021/11/08 10:23:14;;;;;;;0.40;0.40;;;;;;;;;;5031951;28;20258;-63
2021/11/08 10:25:42;;;;;;;0.50;0.50;;;;;;;;;;5031793;28;20172;-64
2021/11/08 10:28:12;;;;;;;0.40;0.40;;;;;;;;;;5032384;28;20181;-64
2021/11/08 10:30:41;;;;;;;0.40;0.40;;;;;;;;;;5031611;28;20173;-64
2021/11/08 10:33:08;;;;;;;0.50;0.50;;;;;;;;;;5031782;28;20542;-64
2021/11/08 10:35:36;;;;;;;0.50;0.50;;;;;;;;;;5031359;28;20180;-64
2021/11/08 10:38:09;;;;;;;0.40;0.40;;;;;;;;;;5031756;28;20223;-64
2021/11/08 10:40:39;;;;;;;0.40;0.40;;;;;;;;;;5031808;28;20656;-64
2021/11/08 10:43:05;;;;;;;0.50;0.50;;;;;;;;;;5031522;28;20196;-64
2021/11/08 10:45:31;;;;;;;0.40;0.40;;;;;;;;;;5031673;28;20176;-64
2021/11/08 10:47:58;;;;;;;0.40;0.40;;;;;;;;;;5031343;28;20443;-64
2021/11/08 10:50:26;;;;;;;0.40;0.40;;;;;;;;;;5031117;28;20412;-64
2021/11/08 10:53:00;;;;;;;0.47;0.47;;;;;;;;;;5030310;28;20220;-64
2021/11/08 10:55:30;;;;;;;0.40;0.40;;;;;;;;;;5031508;28;20259;-64
2021/11/08 10:58:06;;;;;;;0.40;0.40;;;;;;;;;;5030971;28;20287;-64
2021/11/08 11:00:32;;;;;;;0.40;0.40;;;;;;;;;;5030019;28;20181;-64
2021/11/08 11:02:58;;;;;;;0.40;0.40;;;;;;;;;;5032312;28;20246;-64
2021/11/08 11:05:24;;;;;;;0.40;0.40;;;;;;;;;;5036863;28;20439;-64
2021/11/08 11:07:52;;;;;;;0.50;0.50;;;;;;;;;;5038094;28;20208;-64
2021/11/08 11:10:21;;;;;;;0.45;0.45;;;;;;;;;;5037244;28;20406;-66
2021/11/08 11:12:48;;;;;;;0.40;0.40;;;;;;;;;;5037999;28;20168;-66
2021/11/08 11:15:16;;;;;;;0.40;0.40;;;;;;;;;;5038003;28;20183;-66
2021/11/08 11:17:47;;;;;;;0.40;0.40;;;;;;;;;;5037899;28;20291;-66
2021/11/08 11:20:15;;;;;;;0.40;0.40;;;;;;;;;;5037374;28;20177;-67
2021/11/08 11:22:50;;;;;;;0.40;0.40;;;;;;;;;;5038120;28;20165;-66
2021/11/08 11:25:21;;;;;;;0.40;0.40;;;;;;;;;;5039079;28;20593;-66
2021/11/08 11:27:49;;;;;;;0.40;0.40;;;;;;;;;;5038077;28;20180;-66
2021/11/08 11:30:18;;;;;;;0.40;0.40;;;;;;;;;;5037727;28;20251;-66
2021/11/08 11:32:45;;;;;;;0.40;0.40;;;;;;;;;;5037400;28;20177;-66
2021/11/08 11:35:20;;;;;;;0.40;0.40;;;;;;;;;;5037773;28;20177;-66
2021/11/08 11:37:59;;;;;;;0.40;0.40;;;;;;;;;;5037764;28;20704;-64
2021/11/08 11:40:26;;;;;;;0.40;0.40;;;;;;;;;;5037922;28;20527;-64
2021/11/08 11:42:57;;;;;;;0.40;0.40;;;;;;;;;;5037161;28;20179;-64
2021/11/08 11:45:23;;;;;;;0.40;0.40;;;;;;;;;;5037687;28;20168;-64
2021/11/08 11:48:03;;;;;;;0.40;0.40;;;;;;;;;;5037637;28;20184;-64
2021/11/08 11:50:30;;;;;;;0.30;0.30;;;;;;;;;;5037521;28;20536;-65
2021/11/08 11:52:57;;;;;;;0.40;0.40;;;;;;;;;;5037000;28;20190;-64
2021/11/08 11:55:23;;;;;;;0.30;0.30;;;;;;;;;;5035950;28;20442;-64
2021/11/08 11:57:49;;;;;;;0.40;0.40;;;;;;;;;;5037542;28;20799;-64
2021/11/08 12:00:15;;;;;;;0.40;0.40;;;;;;;;;;5037351;28;20389;-64
2021/11/08 12:02:41;;;;;;;0.30;0.30;;;;;;;;;;5037834;28;20839;-64
2021/11/08 12:05:08;;;;;;;0.30;0.30;;;;;;;;;;5036982;28;20230;-64
2021/11/08 12:07:34;;;;;;;0.30;0.30;;;;;;;;;;5037485;28;20881;-64
2021/11/08 12:10:05;;;;;;;0.30;0.30;;;;;;;;;;5037769;28;20480;-64
2021/11/08 12:12:31;;;;;;;0.30;0.30;;;;;;;;;;5037553;28;20382;-64
2021/11/08 12:15:09;;;;;;;0.30;0.30;;;;;;;;;;5035640;28;20492;-66
2021/11/08 12:17:36;;;;;;;0.30;0.30;;;;;;;;;;5034296;28;20462;-65
2021/11/08 12:20:05;;;;;;;0.30;0.30;;;;;;;;;;5034236;28;20907;-65
2021/11/08 12:22:32;;;;;;;0.30;0.30;;;;;;;;;;5034178;28;20436;-65
2021/11/08 12:25:09;;;;;;;0.30;0.30;;;;;;;;;;5034007;28;20435;-65
2021/11/08 12:27:42;;;;;;;0.30;0.30;;;;;;;;;;5033919;28;20381;-66
2021/11/08 12:30:10;;;;;;;0.30;0.30;;;;;;;;;;5034161;28;20415;-65
2021/11/08 12:32:47;;;;;;;0.30;0.30;;;;;;;;;;5034030;28;20419;-65
2021/11/08 12:35:18;;;;;;;0.30;0.30;;;;;;;;;;5034000;28;20933;-65
2021/11/08 12:37:44;;;;;;;0.30;0.30;;;;;;;;;;5033490;28;20456;-65
2021/11/08 12:40:14;;;;;;;0.30;0.30;;;;;;;;;;5033726;28;20378;-65
2021/11/08 12:42:42;;;;;;;0.30;0.30;;;;;;;;;;5033806;28;20407;-65
2021/11/08 12:45:23;;;;;;;0.30;0.30;;;;;;;;;;5033849;28;20460;-65
2021/11/08 12:48:01;;;;;;;0.37;0.37;;;;;;;;;;5033806;28;20484;-65
2021/11/08 12:50:32;;;;;;;0.30;0.30;;;;;;;;;;5032932;28;20903;-65
2021/11/08 12:52:59;;;;;;;0.30;0.30;;;;;;;;;;5032254;28;20441;-65
2021/11/08 12:55:25;;;;;;;0.30;0.30;;;;;;;;;;5034132;28;20448;-65
2021/11/08 12:57:55;;;;;;;0.30;0.30;;;;;;;;;;5033264;28;20206;-65
2021/11/08 13:00:27;;;;;;;0.30;0.30;;;;;;;;;;5043428;28;20989;-65
2021/11/08 13:02:58;;;;;;;0.30;0.30;;;;;;;;;;5053300;28;20384;-65
2021/11/08 13:05:27;;;;;;;0.30;0.30;;;;;;;;;;5053366;28;20739;-65
2021/11/08 13:07:54;;;;;;;0.30;0.30;;;;;;;;;;5053282;28;20190;-65
2021/11/08 13:10:22;;;;;;;0.40;0.40;;;;;;;;;;5051944;28;20267;-65
2021/11/08 13:12:48;;;;;;;0.40;0.40;;;;;;;;;;5052757;28;20852;-65
2021/11/08 13:15:19;;;;;;;0.30;0.30;;;;;;;;;;5053106;28;20426;-65
2021/11/08 13:17:46;;;;;;;0.40;0.40;;;;;;;;;;5051728;28;20443;-65
2021/11/08 13:20:12;;;;;;;0.30;0.30;;;;;;;;;;5052847;28;20191;-65
2021/11/08 13:22:40;;;;;;;0.30;0.30;;;;;;;;;;5052587;28;20379;-65
2021/11/08 13:25:15;;;;;;;0.40;0.40;;;;;;;;;;5052906;28;20211;-65
2021/11/08 13:27:48;;;;;;;0.40;0.40;;;;;;;;;;5052478;28;20406;-65
2021/11/08 13:30:15;;;;;;;0.40;0.40;;;;;;;;;;5051168;28;20184;-65
2021/11/08 13:32:41;;;;;;;0.40;0.40;;;;;;;;;;5052779;28;20183;-65
2021/11/08 13:35:33;;;;;;;0.40;0.40;;;;;;;;;;5052338;28;20192;-65
2021/11/08 13:38:20;;;;;;;0.30;0.30;;;;;;;;;;5050722;28;20338;-65
2021/11/08 13:41:03;;;;;;;0.40;0.40;;;;;;;;;;5052280;28;20180;-65
2021/11/08 13:43:37;;;;;;;0.40;0.40;;;;;;;;;;5052185;28;20198;-65
2021/11/08 13:46:07;;;;;;;0.40;0.40;;;;;;;;;;5051690;28;20204;-65
2021/11/08 13:48:34;;;;;;;0.40;0.40;;;;;;;;;;5052368;28;20175;-65
2021/11/08 13:51:04;;;;;;;0.40;0.40;;;;;;;;;;5052444;28;20187;-65
2021/11/08 13:53:32;;;;;;;0.30;0.30;;;;;;;;;;5052010;28;20233;-65
2021/11/08 13:55:59;;;;;;;0.40;0.40;;;;;;;;;;5051912;28;20187;-65
2021/11/08 13:58:26;;;;;;;0.30;0.30;;;;;;;;;;5052074;28;20557;-65
2021/11/08 14:00:52;;;;;;;0.40;0.40;;;;;;;;;;5051870;28;20179;-65
2021/11/08 14:03:18;;;;;;;0.40;0.40;;;;;;;;;;5051443;28;20188;-65
2021/11/08 14:05:51;;;;;;;0.40;0.40;;;;;;;;;;5051865;28;20491;-65
2021/11/08 14:08:24;;;;;;;0.40;0.40;;;;;;;;;;5051571;28;20402;-65
2021/11/08 14:10:50;;;;;;;0.40;0.40;;;;;;;;;;5051579;28;20547;-65
2021/11/08 14:13:16;;;;;;;0.40;0.40;;;;;;;;;;5051872;28;20679;-65
2021/11/08 14:15:42;;;;;;;0.40;0.40;;;;;;;;;;5051441;28;20186;-65
2021/11/08 14:18:18;;;;;;;0.40;0.40;;;;;;;;;;5050329;28;20498;-65
2021/11/08 14:20:45;;;;;;;0.40;0.40;;;;;;;;;;5051318;28;20493;-65
2021/11/08 14:23:11;;;;;;;0.40;0.40;;;;;;;;;;5051697;28;20199;-65
2021/11/08 14:25:37;;;;;;;0.40;0.40;;;;;;;;;;5051730;28;20226;-65
2021/11/08 14:28:03;;;;;;;0.40;0.40;;;;;;;;;;5051689;28;20586;-65
2021/11/08 14:30:30;;;;;;;0.40;0.40;;;;;;;;;;5050915;28;20407;-65
2021/11/08 14:32:56;;;;;;;0.40;0.40;;;;;;;;;;5051490;28;20550;-65
2021/11/08 14:35:27;;;;;;;0.40;0.40;;;;;;;;;;5050590;28;20180;-65
2021/11/08 14:38:02;;;;;;;0.40;0.40;;;;;;;;;;5050995;28;20202;-65
2021/11/08 14:40:38;;;;;;;0.40;0.40;;;;;;;;;;5051193;28;20172;-65
2021/11/08 14:43:18;;;;;;;0.40;0.40;;;;;;;;;;5051289;28;20167;-65
2021/11/08 14:46:02;;;;;;;0.40;0.40;;;;;;;;;;5051765;28;20520;-65
2021/11/08 14:48:29;;;;;;;0.40;0.40;;;;;;;;;;5051546;28;20233;-65
2021/11/08 14:51:07;;;;;;;0.40;0.40;;;;;;;;;;5051243;28;20255;-65
2021/11/08 14:53:35;;;;;;;0.40;0.40;;;;;;;;;;5050786;28;20210;-65
2021/11/08 14:56:02;;;;;;;0.40;0.40;;;;;;;;;;5051554;28;20191;-65
2021/11/08 14:58:28;;;;;;;0.40;0.40;;;;;;;;;;5051326;28;20650;-65
2021/11/08 15:00:54;;;;;;;0.50;0.50;;;;;;;;;;5051221;28;20176;-65
2021/11/08 15:03:22;;;;;;;0.40;0.40;;;;;;;;;;5050631;28;20428;-64
2021/11/08 15:05:50;;;;;;;0.40;0.40;;;;;;;;;;5051525;28;20415;-65
2021/11/08 15:08:21;;;;;;;0.40;0.40;;;;;;;;;;5051065;28;20184;-65
2021/11/08 15:10:49;;;;;;;0.40;0.40;;;;;;;;;;5050997;28;20164;-65
2021/11/08 15:13:16;;;;;;;0.40;0.40;;;;;;;;;;5051378;28;20570;-64
2021/11/08 15:15:44;;;;;;;0.40;0.40;;;;;;;;;;5050646;28;20172;-65
2021/11/08 15:18:11;;;;;;;0.40;0.40;;;;;;;;;;5051070;28;20341;-64
2021/11/08 15:20:40;;;;;;;0.40;0.40;;;;;;;;;;5050726;28;20164;-65
2021/11/08 15:23:07;;;;;;;0.40;0.40;;;;;;;;;;5051127;28;20725;-64
2021/11/08 15:25:41;;;;;;;0.40;0.40;;;;;;;;;;5049204;28;20172;-65
2021/11/08 15:28:18;;;;;;;0.40;0.40;;;;;;;;;;5050199;28;20178;-65
2021/11/08 15:30:46;;;;;;;0.40;0.40;;;;;;;;;;5051009;28;20164;-65
2021/11/08 15:33:22;;;;;;;0.40;0.40;;;;;;;;;;5051097;28;20227;-66
2021/11/08 15:35:53;;;;;;;0.47;0.47;;;;;;;;;;5051310;28;20190;-66
2021/11/08 15:38:21;;;;;;;0.40;0.40;;;;;;;;;;5050400;28;20249;-66
2021/11/08 15:40:47;;;;;;;0.40;0.40;;;;;;;;;;5049521;28;20180;-66
2021/11/08 15:43:13;;;;;;;0.40;0.40;;;;;;;;;;5051079;28;20219;-65
2021/11/08 15:45:41;;;;;;;0.50;0.50;;;;;;;;;;5049751;28;20271;-65
2021/11/08 15:48:07;;;;;;;0.50;0.50;;;;;;;;;;5049189;28;20234;-65
2021/11/08 15:50:33;;;;;;;0.40;0.40;;;;;;;;;;5053268;28;20171;-65
2021/11/08 15:52:59;;;;;;;0.47;0.47;;;;;;;;;;5054860;28;20186;-65
2021/11/08 15:55:28;;;;;;;0.50;0.50;;;;;;;;;;5054750;28;20550;-65
2021/11/08 15:57:54;;;;;;;0.50;0.50;;;;;;;;;;5054528;28;20531;-65
2021/11/08 16:00:20;;;;;;;0.50;0.50;;;;;;;;;;5053956;28;20183;-65
2021/11/08 16:02:46;;;;;;;0.50;0.50;;;;;;;;;;5054450;28;20208;-65
2021/11/08 16:05:12;;;;;;;0.50;0.50;;;;;;;;;;5054546;28;20224;-65
2021/11/08 16:07:39;;;;;;;0.50;0.50;;;;;;;;;;5054485;28;20218;-65
2021/11/08 16:10:06;;;;;;;0.50;0.50;;;;;;;;;;5053926;28;20179;-65
2021/11/08 16:12:32;;;;;;;0.50;0.50;;;;;;;;;;5054069;28;20176;-65
2021/11/08 16:14:58;;;;;;;0.40;0.40;;;;;;;;;;5054273;28;20206;-65
2021/11/08 16:17:24;;;;;;;0.50;0.50;;;;;;;;;;5054158;28;20850;-65
2021/11/08 16:19:50;;;;;;;0.50;0.50;;;;;;;;;;5054227;28;20406;-65
2021/11/08 16:22:16;;;;;;;0.50;0.50;;;;;;;;;;5053581;28;20484;-65
2021/11/08 16:24:42;;;;;;;0.50;0.50;;;;;;;;;;5053981;28;20429;-65
2021/11/08 16:27:08;;;;;;;0.40;0.40;;;;;;;;;;5054165;28;20183;-65
2021/11/08 16:29:34;;;;;;;0.40;0.40;;;;;;;;;;5054131;28;20436;-65
2021/11/08 16:32:15;;;;;;;0.50;0.50;;;;;;;;;;5053668;28;20920;-65